Time;durP1;ratioP1;P1;durP2;ratioP2;P2;SDS_P1;SDS_P2;PMS_P1;PMS_P2;Temp;Humidity;BMP_temperature;BMP_pressure;BME280_temperature;BME280_humidity;BME280_pressure;Samples;Min_cycle;Max_cycle;Signal;HPM_P1;HPM_P2
2023/08/30 00:02:53;;;;;;;2.60;2.22;;;;;;;16.62;100.00;99143.59;5589285;31;34024;-66
2023/08/30 00:06:02;;;;;;;2.87;2.42;;;;;;;16.63;100.00;99150.59;5589027;31;34543;-67
2023/08/30 00:09:05;;;;;;;3.17;2.37;;;;;;;16.59;100.00;99162.03;5588605;31;33934;-67
2023/08/30 00:12:08;;;;;;;4.68;2.20;;;;;;;16.50;100.00;99159.69;5588418;31;32361;-68
2023/08/30 00:15:10;;;;;;;4.22;2.75;;;;;;;16.58;100.00;99155.84;5589130;31;33883;-67
2023/08/30 00:18:13;;;;;;;3.00;2.50;;;;;;;16.60;100.00;99169.00;5588287;31;33836;-67
2023/08/30 00:21:16;;;;;;;5.07;2.60;;;;;;;16.60;100.00;99177.84;5588249;31;33791;-67
2023/08/30 00:24:19;;;;;;;5.10;2.60;;;;;;;16.59;100.00;99168.19;5588395;31;33969;-67
2023/08/30 00:27:22;;;;;;;4.90;2.87;;;;;;;16.61;100.00;99162.56;5588851;31;33071;-68
2023/08/30 00:30:24;;;;;;;3.42;2.62;;;;;;;16.60;100.00;99167.16;5588068;31;34035;-67
2023/08/30 00:33:27;;;;;;;2.58;2.35;;;;;;;16.63;100.00;99166.66;5588038;31;33932;-68
2023/08/30 00:36:30;;;;;;;4.62;2.90;;;;;;;16.66;100.00;99173.41;5588664;31;33906;-67
2023/08/30 00:39:33;;;;;;;4.62;2.58;;;;;;;16.60;100.00;99179.72;5588631;31;33826;-67
2023/08/30 00:42:36;;;;;;;3.08;2.78;;;;;;;16.54;100.00;99178.75;5588602;31;34515;-67
2023/08/30 00:45:40;;;;;;;4.10;2.80;;;;;;;16.46;100.00;99181.78;5588374;31;33830;-67
2023/08/30 00:48:44;;;;;;;3.87;3.05;;;;;;;16.42;100.00;99181.44;5587804;31;34870;-67
2023/08/30 00:51:47;;;;;;;5.72;3.30;;;;;;;16.46;100.00;99192.47;5587633;31;33822;-67
2023/08/30 00:54:50;;;;;;;5.10;3.70;;;;;;;16.42;100.00;99194.00;5588798;31;33821;-67
2023/08/30 00:57:52;;;;;;;3.83;3.50;;;;;;;16.40;100.00;99194.25;5588241;31;34072;-67
2023/08/30 01:00:56;;;;;;;3.62;3.25;;;;;;;16.47;100.00;99194.13;5588238;31;33991;-67
2023/08/30 01:04:00;;;;;;;5.20;3.40;;;;;;;16.33;100.00;99193.56;5588239;31;34843;-67
2023/08/30 01:07:04;;;;;;;5.30;3.10;;;;;;;16.29;100.00;99189.72;5589501;31;33902;-67
2023/08/30 01:10:10;;;;;;;4.37;3.30;;;;;;;16.21;100.00;99190.09;5590032;31;34466;-67
2023/08/30 01:13:18;;;;;;;4.40;3.00;;;;;;;16.14;100.00;99193.91;5590885;31;33796;-66
2023/08/30 01:16:23;;;;;;;6.32;2.70;;;;;;;16.07;100.00;99186.00;5590697;31;34199;-67
2023/08/30 01:19:38;;;;;;;4.90;2.90;;;;;;;16.12;100.00;99177.28;5591074;31;34542;-67
2023/08/30 01:23:03;;;;;;;5.62;2.72;;;;;;;16.19;100.00;99181.47;5590769;31;34462;-67
2023/08/30 01:26:14;;;;;;;4.95;3.40;;;;;;;16.13;100.00;99190.41;5589899;31;34098;-67
2023/08/30 01:29:19;;;;;;;5.22;3.35;;;;;;;16.16;100.00;99194.50;5590510;31;34100;-67
2023/08/30 01:32:25;;;;;;;7.43;3.65;;;;;;;16.22;100.00;99185.53;5590942;31;33881;-67
2023/08/30 01:35:32;;;;;;;4.10;3.70;;;;;;;16.19;100.00;99186.81;5590564;31;34512;-67
2023/08/30 01:38:37;;;;;;;4.47;3.75;;;;;;;16.16;100.00;99189.97;5590546;31;33839;-67
2023/08/30 01:41:40;;;;;;;5.97;3.80;;;;;;;16.19;100.00;99186.00;5590532;31;33856;-66
2023/08/30 01:44:44;;;;;;;6.03;5.20;;;;;;;16.19;100.00;99186.81;5590144;31;33879;-67
2023/08/30 01:47:52;;;;;;;6.87;6.18;;;;;;;16.15;100.00;99184.84;5590370;31;33822;-67
2023/08/30 01:50:58;;;;;;;7.12;6.03;;;;;;;16.12;100.00;99188.78;5590465;31;33924;-67
2023/08/30 01:54:03;;;;;;;7.15;6.45;;;;;;;16.11;100.00;99179.16;5589629;31;35010;-66
2023/08/30 01:57:06;;;;;;;7.57;6.75;;;;;;;16.31;100.00;99179.63;5590278;31;33803;-67
2023/08/30 02:00:10;;;;;;;10.88;7.90;;;;;;;16.23;100.00;99185.28;5590198;31;34093;-67
2023/08/30 02:03:17;;;;;;;12.32;8.32;;;;;;;16.24;100.00;99192.28;5590178;31;33344;-67
2023/08/30 02:06:35;;;;;;;9.52;7.68;;;;;;;16.22;100.00;99189.00;5590021;31;33847;-67
2023/08/30 02:09:58;;;;;;;10.35;8.50;;;;;;;16.18;100.00;99187.03;5589952;31;34410;-67
2023/08/30 02:13:04;;;;;;;11.07;9.48;;;;;;;16.19;100.00;99202.06;5590229;31;34864;-66
2023/08/30 02:16:09;;;;;;;12.40;8.90;;;;;;;16.14;100.00;99196.59;5590051;31;33933;-67
2023/08/30 02:19:16;;;;;;;13.30;10.13;;;;;;;16.15;100.00;99198.22;5589922;31;33823;-68
2023/08/30 02:22:19;;;;;;;15.80;9.95;;;;;;;16.08;100.00;99201.81;5590059;31;34510;-68
2023/08/30 02:25:24;;;;;;;12.88;9.20;;;;;;;16.13;100.00;99197.62;5590390;31;34519;-67
2023/08/30 02:28:28;;;;;;;13.18;9.52;;;;;;;16.12;100.00;99198.69;5589969;31;33959;-68
2023/08/30 02:31:31;;;;;;;15.00;10.00;;;;;;;16.12;100.00;99207.50;5590331;31;34720;-67
2023/08/30 02:34:35;;;;;;;12.98;9.18;;;;;;;16.05;100.00;99204.16;5590042;31;34537;-67
2023/08/30 02:37:40;;;;;;;11.63;9.18;;;;;;;16.01;100.00;99208.34;5589174;31;33785;-68
2023/08/30 02:40:42;;;;;;;12.30;9.52;;;;;;;16.06;100.00;99211.13;5589417;31;33821;-67
2023/08/30 02:43:45;;;;;;;15.02;9.95;;;;;;;16.10;100.00;99209.63;5590001;31;33941;-67
2023/08/30 02:46:48;;;;;;;12.85;9.43;;;;;;;16.05;100.00;99212.16;5589639;31;34864;-66
2023/08/30 02:49:50;;;;;;;13.95;9.77;;;;;;;16.02;100.00;99209.97;5589972;31;33994;-68
2023/08/30 02:52:53;;;;;;;11.32;8.50;;;;;;;16.01;100.00;99205.66;5589895;31;34891;-67
2023/08/30 02:55:56;;;;;;;12.35;8.85;;;;;;;16.04;100.00;99216.69;5589723;31;34522;-67
2023/08/30 02:58:59;;;;;;;11.25;8.95;;;;;;;16.06;100.00;99216.47;5590045;31;33822;-67
2023/08/30 03:02:02;;;;;;;11.85;8.63;;;;;;;16.02;100.00;99210.75;5589587;31;34689;-67
2023/08/30 03:05:06;;;;;;;14.77;8.32;;;;;;;16.06;100.00;99217.31;5589687;31;34167;-67
2023/08/30 03:08:08;;;;;;;9.95;7.95;;;;;;;16.05;100.00;99201.47;5589668;31;34560;-67
2023/08/30 03:11:13;;;;;;;10.18;7.85;;;;;;;16.14;100.00;99205.44;5589045;31;34579;-68
2023/08/30 03:14:16;;;;;;;10.23;8.45;;;;;;;16.06;100.00;99214.63;5589751;31;35329;-68
2023/08/30 03:17:19;;;;;;;10.25;8.10;;;;;;;16.03;100.00;99209.72;5589633;31;34728;-67
2023/08/30 03:20:22;;;;;;;10.10;7.90;;;;;;;16.02;100.00;99205.41;5589673;31;33824;-67
2023/08/30 03:23:26;;;;;;;14.00;8.27;;;;;;;15.95;100.00;99210.06;5588888;31;34839;-67
2023/08/30 03:26:28;;;;;;;11.12;7.43;;;;;;;15.89;100.00;99210.16;5589533;31;33944;-68
2023/08/30 03:29:31;;;;;;;9.70;7.70;;;;;;;15.94;100.00;99216.47;5588871;31;33882;-67
2023/08/30 03:32:34;;;;;;;11.88;7.47;;;;;;;16.01;100.00;99208.34;5589740;31;34764;-67
2023/08/30 03:35:37;;;;;;;9.50;7.32;;;;;;;16.03;100.00;99216.94;5589541;31;34131;-67
2023/08/30 03:38:40;;;;;;;10.25;8.05;;;;;;;16.00;100.00;99218.22;5589520;31;33978;-67
2023/08/30 03:41:45;;;;;;;11.23;8.35;;;;;;;16.02;100.00;99212.66;5589612;31;33690;-68
2023/08/30 03:44:48;;;;;;;10.60;7.90;;;;;;;16.04;100.00;99208.69;5588300;31;34779;-68
2023/08/30 03:47:50;;;;;;;11.82;8.93;;;;;;;16.06;100.00;99208.44;5589236;31;33844;-67
2023/08/30 03:50:55;;;;;;;15.50;9.75;;;;;;;16.00;100.00;99218.22;5588217;31;33791;-69
2023/08/30 03:53:58;;;;;;;13.43;10.05;;;;;;;16.01;100.00;99216.34;5589038;31;34546;-69
2023/08/30 03:57:00;;;;;;;14.55;10.95;;;;;;;15.92;100.00;99220.41;5589129;31;35352;-67
2023/08/30 04:00:04;;;;;;;13.20;10.45;;;;;;;15.97;100.00;99223.22;5589201;31;34587;-68
2023/08/30 04:03:15;;;;;;;14.98;11.07;;;;;;;15.92;100.00;99228.44;5588924;31;33972;-67
2023/08/30 04:06:18;;;;;;;14.02;10.43;;;;;;;15.86;100.00;99240.88;5588780;31;34908;-67
2023/08/30 04:09:23;;;;;;;14.57;10.90;;;;;;;15.86;100.00;99240.88;5588990;31;34170;-67
2023/08/30 04:12:26;;;;;;;19.55;11.93;;;;;;;15.89;100.00;99240.41;5588811;31;33764;-67
2023/08/30 04:15:29;;;;;;;17.80;11.85;;;;;;;15.87;100.00;99245.19;5588696;31;34077;-69
2023/08/30 04:18:32;;;;;;;16.90;11.32;;;;;;;15.89;100.00;99248.44;5575143;31;33336;-66
2023/08/30 04:21:34;;;;;;;17.40;11.45;;;;;;;15.90;100.00;99250.06;5588595;31;34100;-69
2023/08/30 04:24:37;;;;;;;15.73;11.23;;;;;;;15.92;100.00;99242.62;5588891;31;34025;-67
2023/08/30 04:27:40;;;;;;;15.88;11.63;;;;;;;15.90;100.00;99244.72;5588568;31;33757;-67
2023/08/30 04:30:42;;;;;;;18.73;12.02;;;;;;;15.92;100.00;99250.66;5588626;31;34130;-68
2023/08/30 04:33:46;;;;;;;15.95;11.15;;;;;;;15.96;100.00;99257.19;5588923;31;34054;-68
2023/08/30 04:36:49;;;;;;;16.33;11.68;;;;;;;16.00;100.00;99268.22;5588692;31;33826;-68
2023/08/30 04:39:52;;;;;;;14.60;11.43;;;;;;;16.04;100.00;99270.22;5589144;31;33816;-68
2023/08/30 04:42:58;;;;;;;19.25;12.10;;;;;;;16.04;100.00;99277.41;5590211;31;34494;-68
2023/08/30 04:46:01;;;;;;;18.45;11.50;;;;;;;16.00;100.00;99270.91;5590343;31;33835;-68
2023/08/30 04:49:04;;;;;;;17.58;11.73;;;;;;;16.15;100.00;99275.81;5590846;31;33829;-67
2023/08/30 04:52:07;;;;;;;18.85;11.90;;;;;;;16.11;100.00;99277.31;5590875;31;34028;-68
2023/08/30 04:55:11;;;;;;;16.05;11.35;;;;;;;16.11;100.00;99270.13;5591293;31;33801;-68
2023/08/30 04:58:13;;;;;;;14.57;10.90;;;;;;;16.18;100.00;99270.81;5589963;31;34513;-68
2023/08/30 05:01:16;;;;;;;16.42;11.35;;;;;;;16.21;100.00;99269.53;5589632;31;33995;-67
2023/08/30 05:04:19;;;;;;;16.35;11.15;;;;;;;16.12;100.00;99266.38;5590330;31;34186;-67
2023/08/30 05:07:22;;;;;;;14.85;11.07;;;;;;;16.22;100.00;99276.50;5590278;31;34611;-67
2023/08/30 05:10:25;;;;;;;17.17;12.55;;;;;;;16.07;100.00;99279.66;5590102;31;34275;-68
2023/08/30 05:13:29;;;;;;;16.02;12.00;;;;;;;16.03;100.00;99281.94;5590613;31;33827;-68
2023/08/30 05:16:34;;;;;;;17.15;11.55;;;;;;;16.18;100.00;99289.53;5589824;31;34555;-68
2023/08/30 05:19:37;;;;;;;17.60;12.23;;;;;;;16.14;100.00;99280.34;5590448;31;33897;-69
2023/08/30 05:22:40;;;;;;;16.15;11.75;;;;;;;16.20;100.00;99284.78;5590536;31;33840;-68
2023/08/30 05:25:43;;;;;;;14.77;11.18;;;;;;;16.16;100.00;99274.78;5589848;31;34082;-67
2023/08/30 05:28:46;;;;;;;14.63;11.05;;;;;;;16.11;100.00;99272.78;5590540;31;33800;-68
2023/08/30 05:31:49;;;;;;;16.35;11.90;;;;;;;16.08;100.00;99274.03;5590301;31;33815;-68
2023/08/30 05:34:54;;;;;;;15.63;11.85;;;;;;;16.03;100.00;99275.78;5590014;31;34713;-68
2023/08/30 05:37:58;;;;;;;16.52;11.40;;;;;;;16.08;100.00;99273.22;5589999;31;34638;-68
2023/08/30 05:41:02;;;;;;;14.82;11.02;;;;;;;16.31;100.00;99284.00;5589005;31;34073;-69
2023/08/30 05:44:05;;;;;;;19.27;11.55;;;;;;;16.35;100.00;99287.84;5589122;31;32484;-68
2023/08/30 05:47:08;;;;;;;14.80;11.10;;;;;;;16.40;100.00;99292.50;5590176;31;33941;-69
2023/08/30 05:50:11;;;;;;;15.98;11.07;;;;;;;16.38;100.00;99294.56;5590296;31;34806;-69
2023/08/30 05:53:14;;;;;;;13.95;10.60;;;;;;;16.44;100.00;99304.34;5589967;31;33790;-68
2023/08/30 05:56:17;;;;;;;14.77;11.23;;;;;;;16.44;100.00;99305.19;5590612;31;33786;-67
2023/08/30 05:59:21;;;;;;;13.75;10.40;;;;;;;16.42;100.00;99306.44;5590494;31;34039;-68
2023/08/30 06:02:24;;;;;;;16.42;11.43;;;;;;;16.58;100.00;99303.12;5590147;31;33923;-67
2023/08/30 06:05:27;;;;;;;13.65;10.85;;;;;;;16.66;100.00;99305.44;5589930;31;34023;-68
2023/08/30 06:08:29;;;;;;;15.00;10.82;;;;;;;16.68;100.00;99289.12;5590143;31;34067;-68
2023/08/30 06:11:32;;;;;;;12.07;10.55;;;;;;;16.74;100.00;99288.22;5589706;31;34103;-67
2023/08/30 06:14:35;;;;;;;12.90;10.00;;;;;;;16.75;100.00;99292.53;5589141;31;34846;-67
2023/08/30 06:17:38;;;;;;;14.10;9.68;;;;;;;16.91;100.00;99291.78;5589919;31;33850;-67
2023/08/30 06:20:41;;;;;;;13.62;9.50;;;;;;;17.09;100.00;99299.69;5589585;31;34537;-68
2023/08/30 06:23:44;;;;;;;13.35;9.15;;;;;;;17.29;100.00;99305.47;5589009;31;33871;-68
2023/08/30 06:26:47;;;;;;;13.25;9.32;;;;;;;17.26;100.00;99311.31;5589850;31;33821;-69
2023/08/30 06:29:50;;;;;;;12.77;8.38;;;;;;;17.47;100.00;99304.50;5590062;31;33923;-69
2023/08/30 06:32:54;;;;;;;13.82;8.40;;;;;;;17.45;100.00;99305.78;5590017;31;33811;-68
2023/08/30 06:35:58;;;;;;;9.18;8.10;;;;;;;17.80;100.00;99306.50;5589821;31;34197;-68
2023/08/30 06:39:01;;;;;;;9.77;7.87;;;;;;;17.80;100.00;99314.53;5589919;31;33873;-68
2023/08/30 06:42:04;;;;;;;12.18;7.90;;;;;;;18.03;100.00;99332.38;5589963;31;34796;-68
2023/08/30 06:45:11;;;;;;;11.50;8.02;;;;;;;17.81;100.00;99338.41;5589553;31;34036;-69
2023/08/30 06:48:14;;;;;;;9.90;8.43;;;;;;;17.78;100.00;99330.87;5588816;31;34555;-68
2023/08/30 06:51:18;;;;;;;11.48;8.07;;;;;;;17.44;100.00;99317.53;5589572;31;34286;-67
2023/08/30 06:54:21;;;;;;;9.77;7.50;;;;;;;17.77;100.00;99318.50;5589506;31;33959;-68
2023/08/30 06:57:25;;;;;;;9.45;7.00;;;;;;;18.64;100.00;99310.06;5589548;31;34577;-68
2023/08/30 07:00:28;;;;;;;10.40;6.97;;;;;;;19.97;100.00;99311.47;5589471;31;33918;-69
2023/08/30 07:03:33;;;;;;;8.57;7.45;;;;;;;19.84;100.00;99314.56;5588865;31;34552;-68
2023/08/30 07:06:36;;;;;;;9.63;7.53;;;;;;;20.01;100.00;99319.84;5589330;31;34038;-68
2023/08/30 07:09:41;;;;;;;8.15;6.07;;;;;;;19.52;100.00;99322.56;5588829;31;34127;-67
2023/08/30 07:12:48;;;;;;;6.47;5.37;;;;;;;20.10;100.00;99332.59;5588770;31;34625;-67
2023/08/30 07:15:51;;;;;;;7.78;5.87;;;;;;;20.34;100.00;99330.41;5589492;31;33808;-67
2023/08/30 07:18:55;;;;;;;10.40;6.55;;;;;;;20.50;100.00;99334.84;5589491;31;33817;-66
2023/08/30 07:21:57;;;;;;;8.32;7.50;;;;;;;19.90;100.00;99335.06;5589774;31;34187;-66
2023/08/30 07:25:02;;;;;;;10.35;6.97;;;;;;;19.39;100.00;99325.59;5589377;31;33970;-68
2023/08/30 07:28:06;;;;;;;9.32;6.25;;;;;;;19.58;100.00;99320.75;5588614;31;34530;-68
2023/08/30 07:31:18;;;;;;;9.30;6.62;;;;;;;19.59;100.00;99330.44;5589125;31;33866;-67
2023/08/30 07:34:21;;;;;;;11.30;7.10;;;;;;;19.71;100.00;99331.09;5588435;31;33912;-68
2023/08/30 07:37:25;;;;;;;10.90;6.85;;;;;;;19.61;100.00;99334.50;5588945;31;33947;-68
2023/08/30 07:40:31;;;;;;;9.52;7.22;;;;;;;19.76;100.00;99334.66;5588012;31;33903;-68
2023/08/30 07:43:34;;;;;;;9.27;6.47;;;;;;;19.67;100.00;99336.19;5589039;31;34049;-67
2023/08/30 07:46:37;;;;;;;10.52;6.70;;;;;;;19.35;100.00;99346.00;5567540;31;698656;-65
2023/08/30 07:49:42;;;;;;;9.18;6.75;;;;;;;19.67;100.00;99352.31;5588881;31;33936;-66
2023/08/30 07:52:46;;;;;;;12.95;6.55;;;;;;;19.62;100.00;99351.44;5588057;31;35224;-69
2023/08/30 07:55:50;;;;;;;9.95;6.40;;;;;;;19.80;100.00;99346.53;5588079;31;33978;-68
2023/08/30 07:58:54;;;;;;;8.55;6.85;;;;;;;19.85;100.00;99351.16;5588760;31;33912;-68
2023/08/30 08:01:58;;;;;;;10.70;7.43;;;;;;;19.85;100.00;99351.97;5588642;31;33849;-68
2023/08/30 08:05:01;;;;;;;10.73;7.07;;;;;;;19.42;100.00;99351.97;5588577;31;34188;-67
2023/08/30 08:08:04;;;;;;;10.55;7.35;;;;;;;19.11;100.00;99345.41;5588782;31;34513;-69
2023/08/30 08:11:07;;;;;;;12.55;7.37;;;;;;;19.61;100.00;99357.88;5587912;31;34187;-66
2023/08/30 08:14:10;;;;;;;9.05;6.32;;;;;;;20.04;100.00;99357.03;5588303;31;34808;-66
2023/08/30 08:17:16;;;;;;;10.20;6.90;;;;;;;20.37;100.00;99357.66;5587823;31;34838;-68
2023/08/30 08:20:19;;;;;;;13.40;7.65;;;;;;;21.22;100.00;99362.06;5588241;31;34664;-67
2023/08/30 08:23:22;;;;;;;9.80;7.47;;;;;;;20.77;100.00;99367.13;5587624;31;34000;-67
2023/08/30 08:26:25;;;;;;;12.63;7.10;;;;;;;20.04;100.00;99368.63;5588380;31;34641;-67
2023/08/30 08:29:28;;;;;;;11.02;7.12;;;;;;;20.33;100.00;99372.69;5588145;31;34884;-69
2023/08/30 08:32:31;;;;;;;8.75;6.87;;;;;;;20.02;100.00;99364.53;5587525;31;33889;-68
2023/08/30 08:35:34;;;;;;;9.43;7.20;;;;;;;20.31;100.00;99365.94;5588279;31;33940;-67
2023/08/30 08:38:38;;;;;;;9.43;7.47;;;;;;;19.43;100.00;99364.38;5587943;31;34121;-68
2023/08/30 08:41:43;;;;;;;11.30;7.70;;;;;;;19.65;100.00;99376.00;5588050;31;33872;-67
2023/08/30 08:44:58;;;;;;;8.50;7.03;;;;;;;19.90;100.00;99370.88;5587620;31;34542;-67
2023/08/30 08:48:04;;;;;;;8.60;6.62;;;;;;;21.07;100.00;99369.22;5587664;31;33829;-69
2023/08/30 08:51:06;;;;;;;8.43;6.50;;;;;;;20.66;100.00;99362.75;5587391;31;33984;-67
2023/08/30 08:54:11;;;;;;;10.77;7.62;;;;;;;20.12;100.00;99364.66;5587010;31;34572;-67
2023/08/30 08:57:14;;;;;;;12.50;6.82;;;;;;;20.14;100.00;99365.22;5587433;31;34095;-67
2023/08/30 09:00:17;;;;;;;9.23;6.75;;;;;;;20.39;100.00;99368.16;5587642;31;33853;-67
2023/08/30 09:03:21;;;;;;;9.80;6.85;;;;;;;20.29;100.00;99379.62;5587009;31;34841;-67
2023/08/30 09:06:24;;;;;;;8.00;6.07;;;;;;;20.30;100.00;99381.28;5587636;31;34889;-68
2023/08/30 09:09:27;;;;;;;10.40;6.32;;;;;;;20.63;100.00;99374.84;5586401;31;33992;-67
2023/08/30 09:12:35;;;;;;;9.55;6.97;;;;;;;21.06;100.00;99379.19;5586456;31;33896;-68
2023/08/30 09:15:38;;;;;;;11.52;7.10;;;;;;;20.68;100.00;99374.06;5587315;31;34734;-67
2023/08/30 09:18:42;;;;;;;9.90;6.93;;;;;;;19.59;100.00;99376.19;5586949;31;33893;-66
2023/08/30 09:21:53;;;;;;;11.65;7.20;;;;;;;19.56;100.00;99380.16;5587316;31;34467;-67
2023/08/30 09:24:56;;;;;;;10.00;7.25;;;;;;;19.44;100.00;99392.94;5587532;31;34514;-67
2023/08/30 09:28:03;;;;;;;11.65;7.20;;;;;;;19.85;100.00;99388.84;5589796;31;34499;-68
2023/08/30 09:31:07;;;;;;;11.60;6.93;;;;;;;19.76;100.00;99393.88;5590296;31;33782;-68
2023/08/30 09:34:26;;;;;;;11.43;7.15;;;;;;;20.11;100.00;99401.53;5590246;31;33947;-69
2023/08/30 09:37:30;;;;;;;9.32;7.07;;;;;;;19.46;100.00;99399.69;5590296;31;34106;-67
2023/08/30 09:40:34;;;;;;;8.52;6.37;;;;;;;19.78;100.00;99397.13;5589983;31;34077;-67
2023/08/30 09:43:43;;;;;;;8.90;6.40;;;;;;;20.12;100.00;99394.28;5590640;31;33758;-66
2023/08/30 09:46:56;;;;;;;7.77;6.20;;;;;;;20.59;100.00;99406.06;5590316;31;33805;-68
2023/08/30 09:50:01;;;;;;;8.98;5.93;;;;;;;20.96;100.00;99403.38;5590286;31;33934;-66
2023/08/30 09:53:11;;;;;;;10.20;6.22;;;;;;;21.08;100.00;99416.69;5589953;31;33909;-68
2023/08/30 09:56:15;;;;;;;8.18;5.30;;;;;;;20.96;100.00;99418.78;5590078;31;33983;-67
2023/08/30 09:59:19;;;;;;;6.68;5.05;;;;;;;20.81;100.00;99424.84;5592228;31;33739;-68
2023/08/30 10:02:23;;;;;;;8.05;5.12;;;;;;;20.40;100.00;99420.97;5590347;31;33659;-67
2023/08/30 10:05:27;;;;;;;8.45;5.37;;;;;;;19.83;100.00;99423.28;5590437;31;32411;-68
2023/08/30 10:08:31;;;;;;;8.15;5.70;;;;;;;20.13;100.00;99428.22;5589198;31;34030;-70
2023/08/30 10:11:38;;;;;;;7.72;5.30;;;;;;;20.05;100.00;99417.88;5589904;31;34282;-67
2023/08/30 10:14:42;;;;;;;7.62;5.40;;;;;;;20.41;100.00;99411.03;5590190;31;34939;-68
2023/08/30 10:17:46;;;;;;;8.48;5.40;;;;;;;20.77;100.00;99419.16;5590126;31;33840;-68
2023/08/30 10:20:53;;;;;;;7.50;5.47;;;;;;;20.56;100.00;99416.56;5590190;31;33784;-69
2023/08/30 10:23:57;;;;;;;11.60;5.40;;;;;;;20.74;100.00;99418.84;5589944;31;34824;-68
2023/08/30 10:27:05;;;;;;;6.93;4.45;;;;;;;20.55;100.00;99417.62;5576006;31;33984;-69
2023/08/30 10:30:11;;;;;;;8.55;5.40;;;;;;;20.57;100.00;99426.28;5590434;31;32514;-67
2023/08/30 10:33:16;;;;;;;8.95;5.35;;;;;;;19.57;100.00;99416.78;5589578;31;34573;-68
2023/08/30 10:36:26;;;;;;;7.28;5.18;;;;;;;20.09;100.00;99411.72;5589901;31;34514;-68
2023/08/30 10:39:40;;;;;;;7.20;4.95;;;;;;;20.24;100.00;99416.47;5588500;31;33882;-68
2023/08/30 10:42:43;;;;;;;6.80;4.70;;;;;;;20.58;100.00;99415.22;5589978;31;33493;-67
2023/08/30 10:45:58;;;;;;;7.20;4.45;;;;;;;21.14;100.00;99415.69;5589890;31;32466;-67
2023/08/30 10:49:17;;;;;;;5.72;4.18;;;;;;;21.91;100.00;99418.50;5589500;31;34429;-69
2023/08/30 10:52:19;;;;;;;7.40;4.30;;;;;;;21.80;100.00;99413.31;5589468;31;34571;-67
2023/08/30 10:55:23;;;;;;;5.80;4.30;;;;;;;21.06;100.00;99416.13;5589272;31;34231;-67
2023/08/30 10:58:26;;;;;;;8.65;4.43;;;;;;;20.81;100.00;99419.47;5589626;31;35189;-68
2023/08/30 11:01:29;;;;;;;4.90;3.80;;;;;;;21.47;100.00;99418.03;5589649;31;33775;-69
2023/08/30 11:04:32;;;;;;;4.68;3.72;;;;;;;21.84;100.00;99415.22;5589600;31;33897;-67
2023/08/30 11:07:36;;;;;;;9.05;3.80;;;;;;;21.32;100.00;99415.25;5575913;31;33961;-67
2023/08/30 11:10:42;;;;;;;6.60;3.65;;;;;;;22.17;100.00;99416.72;5589611;31;33915;-68
2023/08/30 11:13:45;;;;;;;6.43;3.35;;;;;;;22.17;100.00;99408.63;5589561;31;33954;-68
2023/08/30 11:16:48;;;;;;;5.15;3.35;;;;;;;22.61;100.00;99408.94;5588747;31;33807;-69
2023/08/30 11:19:58;;;;;;;4.95;3.20;;;;;;;22.44;100.00;99398.37;5589276;31;34467;-68
2023/08/30 11:23:02;;;;;;;5.97;2.72;;;;;;;22.86;100.00;99406.25;5588620;31;33805;-66
2023/08/30 11:26:07;;;;;;;4.70;2.90;;;;;;;22.59;100.00;99399.47;5589632;31;33849;-68
2023/08/30 11:29:09;;;;;;;5.50;2.78;;;;;;;23.61;100.00;99409.13;5588795;31;33871;-67
2023/08/30 11:32:13;;;;;;;4.22;2.60;;;;;;;25.11;93.71;99408.44;5589520;31;34257;-68
2023/08/30 11:35:15;;;;;;;4.78;2.17;;;;;;;26.62;74.29;99397.56;5589396;31;33962;-68
2023/08/30 11:38:19;;;;;;;2.60;2.08;;;;;;;29.57;59.52;99401.75;5588720;31;33906;-68
2023/08/30 11:41:24;;;;;;;4.80;2.45;;;;;;;27.54;62.62;99394.06;5589188;31;33895;-67
2023/08/30 11:44:30;;;;;;;2.83;2.30;;;;;;;25.65;78.21;99399.19;5588452;31;35073;-69
2023/08/30 11:47:34;;;;;;;4.57;2.30;;;;;;;25.05;87.15;99406.87;5589746;31;33939;-67
2023/08/30 11:50:37;;;;;;;8.68;2.60;;;;;;;24.15;98.46;99399.09;5588697;31;33827;-68
2023/08/30 11:53:50;;;;;;;5.37;2.70;;;;;;;23.09;100.00;99395.97;5589346;31;32583;-67
2023/08/30 11:56:53;;;;;;;6.47;2.78;;;;;;;22.73;100.00;99395.19;5575615;31;33767;-67
2023/08/30 12:00:07;;;;;;;4.85;2.72;;;;;;;23.03;100.00;99397.06;5589442;31;33812;-67
2023/08/30 12:03:13;;;;;;;8.77;3.28;;;;;;;22.30;100.00;99383.78;5589612;31;33904;-68
2023/08/30 12:06:17;;;;;;;10.82;3.05;;;;;;;22.82;100.00;99380.03;5589092;31;34514;-68
2023/08/30 12:09:23;;;;;;;5.15;3.00;;;;;;;22.00;100.00;99386.41;5588944;31;34488;-67
2023/08/30 12:12:26;;;;;;;7.22;3.20;;;;;;;21.95;100.00;99381.00;5589078;31;34505;-68
2023/08/30 12:15:34;;;;;;;4.90;3.30;;;;;;;21.63;100.00;99390.06;5588629;31;34835;-68
2023/08/30 12:18:37;;;;;;;6.00;3.10;;;;;;;21.50;100.00;99395.91;5588965;31;34034;-68
2023/08/30 12:21:41;;;;;;;7.20;3.50;;;;;;;21.36;100.00;99388.56;5588928;31;34107;-68
2023/08/30 12:24:45;;;;;;;7.03;3.12;;;;;;;21.05;100.00;99390.25;5588970;31;34437;-68
2023/08/30 12:27:48;;;;;;;10.90;3.30;;;;;;;21.46;100.00;99383.22;5589088;31;33880;-67
2023/08/30 12:30:50;;;;;;;8.27;3.30;;;;;;;21.29;100.00;99378.03;5588103;31;33895;-67
2023/08/30 12:33:54;;;;;;;7.43;3.12;;;;;;;21.74;100.00;99377.38;5589053;31;33836;-68
2023/08/30 12:36:57;;;;;;;5.00;2.95;;;;;;;21.61;100.00;99375.19;5587950;31;34459;-69
2023/08/30 12:40:01;;;;;;;4.50;3.00;;;;;;;21.18;100.00;99385.25;5588468;31;35211;-68
2023/08/30 12:43:08;;;;;;;4.53;3.00;;;;;;;20.82;100.00;99378.75;5588520;31;34642;-67
2023/08/30 12:46:11;;;;;;;5.62;2.87;;;;;;;21.14;100.00;99370.66;5588349;31;34101;-67
2023/08/30 12:49:14;;;;;;;4.80;3.45;;;;;;;21.42;100.00;99374.03;5588623;31;34604;-67
2023/08/30 12:52:17;;;;;;;3.85;2.60;;;;;;;21.75;100.00;99370.91;5588286;31;33813;-68
2023/08/30 12:55:20;;;;;;;3.80;2.60;;;;;;;22.34;100.00;99362.44;5587499;31;34456;-67
2023/08/30 12:58:23;;;;;;;4.50;2.55;;;;;;;22.92;100.00;99356.50;5587390;31;34120;-66
2023/08/30 13:01:28;;;;;;;4.28;2.55;;;;;;;24.65;92.50;99357.28;5588936;31;33871;-68
2023/08/30 13:04:31;;;;;;;3.75;2.03;;;;;;;25.72;81.80;99359.69;5591056;31;34425;-67
2023/08/30 13:07:33;;;;;;;7.45;2.70;;;;;;;28.18;62.98;99360.22;5590796;31;33878;-69
2023/08/30 13:10:37;;;;;;;14.07;2.60;;;;;;;28.10;62.67;99353.56;5590744;31;34875;-68
2023/08/30 13:13:40;;;;;;;18.45;2.70;;;;;;;27.42;65.40;99350.94;5590777;31;33897;-69
2023/08/30 13:16:43;;;;;;;4.07;2.47;;;;;;;26.03;72.03;99359.28;5590697;31;35013;-67
2023/08/30 13:19:46;;;;;;;3.78;2.10;;;;;;;24.71;83.34;99360.75;5590401;31;33998;-69
2023/08/30 13:22:48;;;;;;;5.22;2.10;;;;;;;27.35;67.05;99355.19;5590672;31;33950;-69
2023/08/30 13:25:51;;;;;;;3.30;2.20;;;;;;;26.39;70.58;99360.37;5590325;31;33498;-67
2023/08/30 13:28:54;;;;;;;4.07;2.08;;;;;;;24.74;83.04;99359.38;5590356;31;33912;-68
2023/08/30 13:31:57;;;;;;;2.95;2.10;;;;;;;23.08;100.00;99364.59;5590557;31;34870;-70
2023/08/30 13:35:00;;;;;;;3.80;2.37;;;;;;;22.41;100.00;99363.00;5590516;31;34431;-68
2023/08/30 13:38:04;;;;;;;3.10;2.30;;;;;;;22.76;100.00;99367.59;5589993;31;33638;-66
2023/08/30 13:41:07;;;;;;;2.75;2.00;;;;;;;22.73;100.00;99363.53;5590620;31;33909;-69
2023/08/30 13:44:10;;;;;;;4.97;1.95;;;;;;;23.64;100.00;99367.94;5590078;31;33921;-68
2023/08/30 13:47:13;;;;;;;5.07;2.00;;;;;;;25.06;77.91;99375.91;5590022;31;34040;-67
2023/08/30 13:50:16;;;;;;;2.90;2.12;;;;;;;23.68;91.99;99377.13;5590433;31;33917;-68
2023/08/30 13:53:19;;;;;;;2.22;1.90;;;;;;;22.62;100.00;99372.72;5590234;31;33802;-70
2023/08/30 13:56:23;;;;;;;3.65;2.15;;;;;;;24.20;91.26;99369.31;5590210;31;35387;-67
2023/08/30 13:59:26;;;;;;;4.72;1.98;;;;;;;23.54;97.30;99366.09;5589846;31;33896;-68
2023/08/30 14:02:29;;;;;;;2.25;2.03;;;;;;;23.19;94.60;99372.38;5590496;31;33915;-70
2023/08/30 14:05:32;;;;;;;4.05;2.30;;;;;;;22.03;100.00;99373.19;5589853;31;33926;-67
2023/08/30 14:08:35;;;;;;;4.22;2.37;;;;;;;21.74;100.00;99379.28;5589488;31;33747;-67
2023/08/30 14:11:38;;;;;;;5.15;2.17;;;;;;;21.50;100.00;99365.41;5589461;31;33822;-67
2023/08/30 14:14:41;;;;;;;4.03;2.10;;;;;;;22.46;100.00;99381.91;5589738;31;33798;-68